PWSweather.com
Personal Weather Stations
Station Observations
WD4JKH
Forsyth, GA 31029

Forsyth, GA 31029

Lat: 33.033225, Lon: -83.927995

Elevation: 709

Station Type: Davis Vantage VUE

High Low Average
Temperature 86.0°F30.0°C 71.0°F21.7°C 75.9°F24.4°C
Dew Point 76.4°F24.7°C 69.9°F21.1°C 72.6°F22.6°C
Winds 4.1 mph 6.6 kmh Calm Calm 1.0 mph S1.6 kmh S
Wind Gusts 9.0 mph14.5 kmh -- 3.0 mph4.8 kmh
Humidity 97% 68% 90%
Pressure 29.98 in1015.2 mb 29.91 in1012.9 mb -
Precipitation 0.22 in5.6 mm - -
Hour Temp Dew Point Humidity Winds Wind Gusts Pressure Precip Precip Rate Daily Precip Total
12:04 AM 75.9°F24.4°C 72.4°F22.4°C 89% Calm Calm 1.0 mph1.6 kmh 29.95 in1014.2 mb 0.00 in0.0 mm 0.00 in0.0 mm 0.00 in0.0 mm
12:09 AM 75.6°F24.2°C 72.1°F22.3°C 89% Calm Calm 1.0 mph1.6 kmh 29.95 in1014.2 mb 0.00 in0.0 mm 0.00 in0.0 mm 0.00 in0.0 mm
12:14 AM 75.4°F24.1°C 72.3°F22.4°C 90% Calm Calm 1.0 mph1.6 kmh 29.95 in1014.2 mb 0.00 in0.0 mm 0.00 in0.0 mm 0.00 in0.0 mm
12:19 AM 75.1°F23.9°C 72.0°F22.2°C 90% Calm Calm 1.0 mph1.6 kmh 29.95 in1014.2 mb 0.00 in0.0 mm 0.00 in0.0 mm 0.00 in0.0 mm
12:24 AM 74.9°F23.8°C 71.8°F22.1°C 90% Calm Calm 1.0 mph1.6 kmh 29.95 in1014.2 mb 0.00 in0.0 mm 0.00 in0.0 mm 0.00 in0.0 mm
12:29 AM 74.8°F23.8°C 72.0°F22.2°C 91% Calm Calm 1.0 mph1.6 kmh 29.95 in1014.2 mb 0.00 in0.0 mm 0.00 in0.0 mm 0.00 in0.0 mm
12:34 AM 74.8°F23.8°C 72.0°F22.2°C 91% Calm Calm 1.0 mph1.6 kmh 29.95 in1014.2 mb 0.00 in0.0 mm 0.00 in0.0 mm 0.00 in0.0 mm
12:39 AM 74.8°F23.8°C 72.0°F22.2°C 91% Calm Calm -- 29.94 in1013.9 mb 0.00 in0.0 mm 0.00 in0.0 mm 0.00 in0.0 mm
12:44 AM 75.0°F23.9°C 72.2°F22.3°C 91% Calm Calm -- 29.94 in1013.9 mb 0.00 in0.0 mm 0.00 in0.0 mm 0.00 in0.0 mm
12:49 AM 74.9°F23.8°C 72.1°F22.3°C 91% 1.0 mph ESE1.6 kmh ESE 1.0 mph1.6 kmh 29.94 in1013.9 mb 0.00 in0.0 mm 0.00 in0.0 mm 0.00 in0.0 mm
12:54 AM 74.7°F23.7°C 71.9°F22.2°C 91% 1.1 mph SE1.8 kmh SE 2.0 mph3.2 kmh 29.94 in1013.9 mb 0.00 in0.0 mm 0.00 in0.0 mm 0.00 in0.0 mm
12:59 AM 74.6°F23.7°C 72.1°F22.3°C 92% 1.0 mph ESE1.6 kmh ESE 2.0 mph3.2 kmh 29.94 in1013.9 mb 0.00 in0.0 mm 0.00 in0.0 mm 0.00 in0.0 mm
01:04 AM 74.5°F23.6°C 72.0°F22.2°C 92% 1.0 mph SE1.6 kmh SE 2.0 mph3.2 kmh 29.93 in1013.5 mb 0.00 in0.0 mm 0.00 in0.0 mm 0.00 in0.0 mm
01:09 AM 74.3°F23.5°C 71.8°F22.1°C 92% 1.0 mph ESE1.6 kmh ESE 3.0 mph4.8 kmh 29.94 in1013.9 mb 0.00 in0.0 mm 0.00 in0.0 mm 0.00 in0.0 mm
01:14 AM 74.2°F23.4°C 72.0°F22.2°C 93% 2.4 mph SE3.9 kmh SE 5.0 mph8.0 kmh 29.94 in1013.9 mb 0.00 in0.0 mm 0.00 in0.0 mm 0.00 in0.0 mm
01:19 AM 74.2°F23.4°C 72.0°F22.2°C 93% 2.1 mph SE3.4 kmh SE 6.0 mph9.7 kmh 29.94 in1013.9 mb 0.00 in0.0 mm 0.00 in0.0 mm 0.00 in0.0 mm
01:24 AM 74.1°F23.4°C 71.9°F22.2°C 93% 2.3 mph SSE3.7 kmh SSE 6.0 mph9.7 kmh 29.94 in1013.9 mb 0.00 in0.0 mm 0.00 in0.0 mm 0.00 in0.0 mm
01:29 AM 74.0°F23.3°C 71.8°F22.1°C 93% 1.1 mph SSE1.8 kmh SSE 6.0 mph9.7 kmh 29.94 in1013.9 mb 0.00 in0.0 mm 0.00 in0.0 mm 0.00 in0.0 mm
01:34 AM 73.9°F23.3°C 71.7°F22.1°C 93% 1.1 mph SE1.8 kmh SE 6.0 mph9.7 kmh 29.93 in1013.5 mb 0.00 in0.0 mm 0.00 in0.0 mm 0.00 in0.0 mm
01:39 AM 73.8°F23.2°C 71.6°F22.0°C 93% 1.0 mph SSE1.6 kmh SSE 6.0 mph9.7 kmh 29.94 in1013.9 mb 0.00 in0.0 mm 0.00 in0.0 mm 0.00 in0.0 mm
01:44 AM 73.7°F23.2°C 71.5°F21.9°C 93% 1.0 mph SE1.6 kmh SE 3.0 mph4.8 kmh 29.93 in1013.5 mb 0.00 in0.0 mm 0.00 in0.0 mm 0.00 in0.0 mm
01:49 AM 73.7°F23.2°C 71.5°F21.9°C 93% 1.5 mph SE2.4 kmh SE 4.0 mph6.4 kmh 29.93 in1013.5 mb 0.00 in0.0 mm 0.00 in0.0 mm 0.00 in0.0 mm
01:54 AM 73.6°F23.1°C 71.4°F21.9°C 93% 1.7 mph SE2.7 kmh SE 4.0 mph6.4 kmh 29.93 in1013.5 mb 0.00 in0.0 mm 0.00 in0.0 mm 0.00 in0.0 mm
01:59 AM 73.5°F23.1°C 71.6°F22.0°C 94% 2.1 mph SSE3.4 kmh SSE 5.0 mph8.0 kmh 29.93 in1013.5 mb 0.00 in0.0 mm 0.00 in0.0 mm 0.00 in0.0 mm
02:04 AM 73.4°F23.0°C 71.5°F21.9°C 94% 1.6 mph SE2.6 kmh SE 5.0 mph8.0 kmh 29.93 in1013.5 mb 0.00 in0.0 mm 0.00 in0.0 mm 0.00 in0.0 mm
02:09 AM 73.3°F22.9°C 71.4°F21.9°C 94% 1.0 mph SSE1.6 kmh SSE 5.0 mph8.0 kmh 29.93 in1013.5 mb 0.00 in0.0 mm 0.00 in0.0 mm 0.00 in0.0 mm
02:14 AM 73.2°F22.9°C 71.4°F21.9°C 94% 1.3 mph SW2.1 kmh SW 5.0 mph8.0 kmh 29.92 in1013.2 mb 0.00 in0.0 mm 0.00 in0.0 mm 0.00 in0.0 mm
02:19 AM 73.0°F22.8°C 71.2°F21.8°C 94% 1.0 mph E1.6 kmh E 4.0 mph6.4 kmh 29.92 in1013.2 mb 0.00 in0.0 mm 0.00 in0.0 mm 0.00 in0.0 mm
02:24 AM 72.9°F22.7°C 71.1°F21.7°C 94% Calm Calm 4.0 mph6.4 kmh 29.92 in1013.2 mb 0.00 in0.0 mm 0.00 in0.0 mm 0.00 in0.0 mm
02:29 AM 72.8°F22.7°C 71.3°F21.8°C 95% Calm Calm 2.0 mph3.2 kmh 29.92 in1013.2 mb 0.00 in0.0 mm 0.00 in0.0 mm 0.00 in0.0 mm
02:34 AM 72.6°F22.6°C 71.1°F21.7°C 95% Calm Calm 2.0 mph3.2 kmh 29.92 in1013.2 mb 0.00 in0.0 mm 0.00 in0.0 mm 0.00 in0.0 mm
02:39 AM 72.5°F22.5°C 71.0°F21.7°C 95% Calm Calm 1.0 mph1.6 kmh 29.92 in1013.2 mb 0.00 in0.0 mm 0.00 in0.0 mm 0.00 in0.0 mm
02:44 AM 72.4°F22.4°C 70.9°F21.6°C 95% 1.0 mph SW1.6 kmh SW 1.0 mph1.6 kmh 29.92 in1013.2 mb 0.00 in0.0 mm 0.00 in0.0 mm 0.00 in0.0 mm
02:49 AM 72.3°F22.4°C 70.8°F21.6°C 95% Calm Calm 1.0 mph1.6 kmh 29.92 in1013.2 mb 0.00 in0.0 mm 0.00 in0.0 mm 0.00 in0.0 mm
02:54 AM 72.3°F22.4°C 71.1°F21.7°C 96% 1.0 mph S1.6 kmh S 1.0 mph1.6 kmh 29.91 in1012.9 mb 0.00 in0.0 mm 0.00 in0.0 mm 0.00 in0.0 mm
02:59 AM 72.2°F22.3°C 71.0°F21.7°C 96% 1.0 mph SW1.6 kmh SW 1.0 mph1.6 kmh 29.92 in1013.2 mb 0.00 in0.0 mm 0.00 in0.0 mm 0.00 in0.0 mm
03:04 AM 72.1°F22.3°C 70.9°F21.6°C 96% 1.4 mph SW2.3 kmh SW 2.0 mph3.2 kmh 29.91 in1012.9 mb 0.00 in0.0 mm 0.00 in0.0 mm 0.00 in0.0 mm
03:09 AM 72.0°F22.2°C 70.8°F21.6°C 96% 1.0 mph SW1.6 kmh SW 2.0 mph3.2 kmh 29.92 in1013.2 mb 0.00 in0.0 mm 0.00 in0.0 mm 0.00 in0.0 mm
03:14 AM 71.9°F22.2°C 70.7°F21.5°C 96% 1.0 mph WSW1.6 kmh WSW 2.0 mph3.2 kmh 29.91 in1012.9 mb 0.00 in0.0 mm 0.00 in0.0 mm 0.00 in0.0 mm
03:19 AM 71.9°F22.2°C 70.7°F21.5°C 96% Calm Calm 2.0 mph3.2 kmh 29.91 in1012.9 mb 0.00 in0.0 mm 0.00 in0.0 mm 0.00 in0.0 mm
03:24 AM 71.9°F22.2°C 70.7°F21.5°C 96% 1.0 mph WSW1.6 kmh WSW 4.0 mph6.4 kmh 29.91 in1012.9 mb 0.00 in0.0 mm 0.00 in0.0 mm 0.00 in0.0 mm
03:29 AM 71.8°F22.1°C 70.9°F21.6°C 97% 1.0 mph W1.6 kmh W 4.0 mph6.4 kmh 29.91 in1012.9 mb 0.00 in0.0 mm 0.00 in0.0 mm 0.00 in0.0 mm
03:34 AM 71.8°F22.1°C 70.9°F21.6°C 97% 1.0 mph WSW1.6 kmh WSW 4.0 mph6.4 kmh 29.91 in1012.9 mb 0.00 in0.0 mm 0.00 in0.0 mm 0.00 in0.0 mm
03:39 AM 71.8°F22.1°C 70.9°F21.6°C 97% Calm Calm 4.0 mph6.4 kmh 29.91 in1012.9 mb 0.00 in0.0 mm 0.00 in0.0 mm 0.00 in0.0 mm
03:44 AM 71.8°F22.1°C 70.9°F21.6°C 97% Calm Calm 2.0 mph3.2 kmh 29.91 in1012.9 mb 0.00 in0.0 mm 0.00 in0.0 mm 0.00 in0.0 mm
03:49 AM 71.8°F22.1°C 70.6°F21.4°C 96% Calm Calm 1.0 mph1.6 kmh 29.91 in1012.9 mb 0.00 in0.0 mm 0.00 in0.0 mm 0.00 in0.0 mm
03:54 AM 71.7°F22.1°C 70.8°F21.6°C 97% Calm Calm 1.0 mph1.6 kmh 29.91 in1012.9 mb 0.00 in0.0 mm 0.00 in0.0 mm 0.00 in0.0 mm
03:59 AM 71.6°F22.0°C 70.7°F21.5°C 97% 1.0 mph WSW1.6 kmh WSW 1.0 mph1.6 kmh 29.91 in1012.9 mb 0.00 in0.0 mm 0.00 in0.0 mm 0.00 in0.0 mm
04:04 AM 71.6°F22.0°C 70.7°F21.5°C 97% 1.0 mph WSW1.6 kmh WSW 1.0 mph1.6 kmh 29.91 in1012.9 mb 0.00 in0.0 mm 0.00 in0.0 mm 0.00 in0.0 mm
04:09 AM 71.5°F21.9°C 70.6°F21.4°C 97% 1.0 mph WSW1.6 kmh WSW 1.0 mph1.6 kmh 29.92 in1013.2 mb 0.00 in0.0 mm 0.00 in0.0 mm 0.00 in0.0 mm
04:14 AM 71.5°F21.9°C 70.6°F21.4°C 97% 1.0 mph WNW1.6 kmh WNW 1.0 mph1.6 kmh 29.92 in1013.2 mb 0.00 in0.0 mm 0.00 in0.0 mm 0.00 in0.0 mm
04:19 AM 71.5°F21.9°C 70.6°F21.4°C 97% 1.3 mph W2.1 kmh W 3.0 mph4.8 kmh 29.92 in1013.2 mb 0.00 in0.0 mm 0.00 in0.0 mm 0.00 in0.0 mm
04:23 AM 71.5°F21.9°C 70.6°F21.4°C 97% 1.0 mph WSW1.6 kmh WSW 3.0 mph4.8 kmh 29.92 in1013.2 mb 0.00 in0.0 mm 0.00 in0.0 mm 0.00 in0.0 mm
04:28 AM 71.6°F22.0°C 70.7°F21.5°C 97% 1.0 mph W1.6 kmh W 3.0 mph4.8 kmh 29.92 in1013.2 mb 0.00 in0.0 mm 0.00 in0.0 mm 0.00 in0.0 mm
04:33 AM 71.5°F21.9°C 70.6°F21.4°C 97% 1.4 mph SW2.3 kmh SW 3.0 mph4.8 kmh 29.92 in1013.2 mb 0.00 in0.0 mm 0.00 in0.0 mm 0.00 in0.0 mm
04:38 AM 71.5°F21.9°C 70.6°F21.4°C 97% 1.0 mph WSW1.6 kmh WSW 2.0 mph3.2 kmh 29.92 in1013.2 mb 0.00 in0.0 mm 0.00 in0.0 mm 0.00 in0.0 mm
04:43 AM 71.5°F21.9°C 70.6°F21.4°C 97% 1.0 mph WSW1.6 kmh WSW 3.0 mph4.8 kmh 29.93 in1013.5 mb 0.00 in0.0 mm 0.00 in0.0 mm 0.00 in0.0 mm
04:48 AM 71.5°F21.9°C 70.6°F21.4°C 97% 1.3 mph WSW2.1 kmh WSW 3.0 mph4.8 kmh 29.93 in1013.5 mb 0.00 in0.0 mm 0.00 in0.0 mm 0.00 in0.0 mm
04:53 AM 71.5°F21.9°C 70.6°F21.4°C 97% 1.1 mph W1.8 kmh W 3.0 mph4.8 kmh 29.93 in1013.5 mb 0.00 in0.0 mm 0.00 in0.0 mm 0.00 in0.0 mm
04:58 AM 71.5°F21.9°C 70.6°F21.4°C 97% 1.3 mph W2.1 kmh W 3.0 mph4.8 kmh 29.93 in1013.5 mb 0.00 in0.0 mm 0.00 in0.0 mm 0.00 in0.0 mm
05:03 AM 71.5°F21.9°C 70.6°F21.4°C 97% Calm Calm 3.0 mph4.8 kmh 29.93 in1013.5 mb 0.00 in0.0 mm 0.00 in0.0 mm 0.00 in0.0 mm
05:08 AM 71.5°F21.9°C 70.6°F21.4°C 97% 1.0 mph WSW1.6 kmh WSW 3.0 mph4.8 kmh 29.93 in1013.5 mb 0.00 in0.0 mm 0.00 in0.0 mm 0.00 in0.0 mm
05:13 AM 71.5°F21.9°C 70.3°F21.3°C 96% 1.0 mph WSW1.6 kmh WSW 3.0 mph4.8 kmh 29.93 in1013.5 mb 0.00 in0.0 mm 0.00 in0.0 mm 0.00 in0.0 mm
05:18 AM 71.5°F21.9°C 70.3°F21.3°C 96% 1.0 mph SW1.6 kmh SW 3.0 mph4.8 kmh 29.93 in1013.5 mb 0.00 in0.0 mm 0.00 in0.0 mm 0.00 in0.0 mm
05:23 AM 71.4°F21.9°C 70.2°F21.2°C 96% 1.0 mph SW1.6 kmh SW 1.0 mph1.6 kmh 29.93 in1013.5 mb 0.00 in0.0 mm 0.00 in0.0 mm 0.00 in0.0 mm
05:28 AM 71.2°F21.8°C 70.0°F21.1°C 96% 1.7 mph WSW2.7 kmh WSW 3.0 mph4.8 kmh 29.93 in1013.5 mb 0.00 in0.0 mm 0.00 in0.0 mm 0.00 in0.0 mm
05:33 AM 71.2°F21.8°C 70.0°F21.1°C 96% 2.4 mph WSW3.9 kmh WSW 6.0 mph9.7 kmh 29.93 in1013.5 mb 0.00 in0.0 mm 0.00 in0.0 mm 0.00 in0.0 mm
05:38 AM 71.2°F21.8°C 70.0°F21.1°C 96% 1.5 mph SW2.4 kmh SW 6.0 mph9.7 kmh 29.93 in1013.5 mb 0.00 in0.0 mm 0.00 in0.0 mm 0.00 in0.0 mm
05:43 AM 71.1°F21.7°C 69.9°F21.1°C 96% Calm Calm 6.0 mph9.7 kmh 29.93 in1013.5 mb 0.00 in0.0 mm 0.00 in0.0 mm 0.00 in0.0 mm
05:48 AM 71.1°F21.7°C 70.2°F21.2°C 97% Calm Calm 6.0 mph9.7 kmh 29.93 in1013.5 mb 0.00 in0.0 mm 0.00 in0.0 mm 0.00 in0.0 mm
05:53 AM 71.1°F21.7°C 70.2°F21.2°C 97% 1.0 mph SW1.6 kmh SW 2.0 mph3.2 kmh 29.94 in1013.9 mb 0.00 in0.0 mm 0.00 in0.0 mm 0.00 in0.0 mm
05:58 AM 71.1°F21.7°C 70.2°F21.2°C 97% 1.3 mph SW2.1 kmh SW 2.0 mph3.2 kmh 29.94 in1013.9 mb 0.00 in0.0 mm 0.00 in0.0 mm 0.00 in0.0 mm
06:03 AM 71.1°F21.7°C 70.2°F21.2°C 97% 1.0 mph WSW1.6 kmh WSW 4.0 mph6.4 kmh 29.94 in1013.9 mb 0.00 in0.0 mm 0.00 in0.0 mm 0.00 in0.0 mm
06:08 AM 71.0°F21.7°C 70.1°F21.2°C 97% 1.3 mph SW2.1 kmh SW 4.0 mph6.4 kmh 29.94 in1013.9 mb 0.00 in0.0 mm 0.00 in0.0 mm 0.00 in0.0 mm
06:13 AM 71.1°F21.7°C 70.2°F21.2°C 97% 1.5 mph WSW2.4 kmh WSW 4.0 mph6.4 kmh 29.94 in1013.9 mb 0.00 in0.0 mm 0.00 in0.0 mm 0.00 in0.0 mm
06:18 AM 71.2°F21.8°C 70.3°F21.3°C 97% 1.8 mph WSW2.9 kmh WSW 4.0 mph6.4 kmh 29.94 in1013.9 mb 0.00 in0.0 mm 0.00 in0.0 mm 0.00 in0.0 mm
06:23 AM 71.4°F21.9°C 70.5°F21.4°C 97% 1.2 mph SSW1.9 kmh SSW 4.0 mph6.4 kmh 29.94 in1013.9 mb 0.00 in0.0 mm 0.00 in0.0 mm 0.00 in0.0 mm
06:28 AM 71.6°F22.0°C 70.7°F21.5°C 97% 1.9 mph WSW3.1 kmh WSW 4.0 mph6.4 kmh 29.94 in1013.9 mb 0.00 in0.0 mm 0.00 in0.0 mm 0.00 in0.0 mm
06:33 AM 71.7°F22.1°C 70.5°F21.4°C 96% 1.0 mph WNW1.6 kmh WNW 4.0 mph6.4 kmh 29.94 in1013.9 mb 0.00 in0.0 mm 0.00 in0.0 mm 0.00 in0.0 mm
06:38 AM 71.9°F22.2°C 70.7°F21.5°C 96% 1.0 mph WNW1.6 kmh WNW 3.0 mph4.8 kmh 29.94 in1013.9 mb 0.00 in0.0 mm 0.00 in0.0 mm 0.00 in0.0 mm
06:43 AM 72.2°F22.3°C 71.0°F21.7°C 96% 1.0 mph W1.6 kmh W 3.0 mph4.8 kmh 29.94 in1013.9 mb 0.00 in0.0 mm 0.00 in0.0 mm 0.00 in0.0 mm
06:48 AM 72.4°F22.4°C 71.2°F21.8°C 96% 1.1 mph WNW1.8 kmh WNW 2.0 mph3.2 kmh 29.95 in1014.2 mb 0.00 in0.0 mm 0.00 in0.0 mm 0.00 in0.0 mm
06:53 AM 72.6°F22.6°C 71.1°F21.7°C 95% Calm Calm 3.0 mph4.8 kmh 29.95 in1014.2 mb 0.00 in0.0 mm 0.00 in0.0 mm 0.00 in0.0 mm
06:58 AM 72.8°F22.7°C 71.3°F21.8°C 95% 1.0 mph WSW1.6 kmh WSW 3.0 mph4.8 kmh 29.95 in1014.2 mb 0.00 in0.0 mm 0.00 in0.0 mm 0.00 in0.0 mm
07:03 AM 73.0°F22.8°C 71.5°F21.9°C 95% 1.0 mph NW1.6 kmh NW 3.0 mph4.8 kmh 29.95 in1014.2 mb 0.00 in0.0 mm 0.00 in0.0 mm 0.00 in0.0 mm
07:08 AM 73.2°F22.9°C 71.7°F22.1°C 95% Calm Calm 3.0 mph4.8 kmh 29.95 in1014.2 mb 0.00 in0.0 mm 0.00 in0.0 mm 0.00 in0.0 mm
07:13 AM 73.5°F23.1°C 71.6°F22.0°C 94% 1.3 mph NNW2.1 kmh NNW 2.0 mph3.2 kmh 29.95 in1014.2 mb 0.00 in0.0 mm 0.00 in0.0 mm 0.00 in0.0 mm
07:18 AM 73.7°F23.2°C 71.8°F22.1°C 94% 1.0 mph W1.6 kmh W 2.0 mph3.2 kmh 29.96 in1014.6 mb 0.00 in0.0 mm 0.00 in0.0 mm 0.00 in0.0 mm
07:23 AM 73.9°F23.3°C 71.7°F22.1°C 93% 1.0 mph E1.6 kmh E 2.0 mph3.2 kmh 29.96 in1014.6 mb 0.00 in0.0 mm 0.00 in0.0 mm 0.00 in0.0 mm
07:28 AM 74.2°F23.4°C 72.0°F22.2°C 93% Calm Calm 2.0 mph3.2 kmh 29.96 in1014.6 mb 0.00 in0.0 mm 0.00 in0.0 mm 0.00 in0.0 mm
07:33 AM 74.5°F23.6°C 72.3°F22.4°C 93% Calm Calm 1.0 mph1.6 kmh 29.96 in1014.6 mb 0.00 in0.0 mm 0.00 in0.0 mm 0.00 in0.0 mm
07:38 AM 74.8°F23.8°C 72.3°F22.4°C 92% Calm Calm 1.0 mph1.6 kmh 29.96 in1014.6 mb 0.00 in0.0 mm 0.00 in0.0 mm 0.00 in0.0 mm
07:43 AM 75.0°F23.9°C 72.5°F22.5°C 92% Calm Calm -- 29.96 in1014.6 mb 0.00 in0.0 mm 0.00 in0.0 mm 0.00 in0.0 mm
07:48 AM 75.3°F24.1°C 72.5°F22.5°C 91% 1.6 mph NE2.6 kmh NE 3.0 mph4.8 kmh 29.97 in1014.9 mb 0.00 in0.0 mm 0.00 in0.0 mm 0.00 in0.0 mm
07:53 AM 75.1°F23.9°C 72.3°F22.4°C 91% 1.0 mph NE1.6 kmh NE 3.0 mph4.8 kmh 29.97 in1014.9 mb 0.00 in0.0 mm 0.00 in0.0 mm 0.00 in0.0 mm
07:58 AM 75.1°F23.9°C 72.3°F22.4°C 91% 1.0 mph NNE1.6 kmh NNE 3.0 mph4.8 kmh 29.97 in1014.9 mb 0.00 in0.0 mm 0.00 in0.0 mm 0.00 in0.0 mm
08:03 AM 75.1°F23.9°C 72.3°F22.4°C 91% 1.0 mph NE1.6 kmh NE 3.0 mph4.8 kmh 29.97 in1014.9 mb 0.00 in0.0 mm 0.00 in0.0 mm 0.00 in0.0 mm
08:08 AM 75.1°F23.9°C 72.3°F22.4°C 91% 1.5 mph NE2.4 kmh NE 3.0 mph4.8 kmh 29.97 in1014.9 mb 0.00 in0.0 mm 0.00 in0.0 mm 0.00 in0.0 mm
08:13 AM 74.7°F23.7°C 72.2°F22.3°C 92% 2.0 mph ENE3.2 kmh ENE 4.0 mph6.4 kmh 29.97 in1014.9 mb 0.00 in0.0 mm 0.00 in0.0 mm 0.00 in0.0 mm
08:18 AM 74.6°F23.7°C 72.1°F22.3°C 92% Calm Calm 4.0 mph6.4 kmh 29.97 in1014.9 mb 0.00 in0.0 mm 0.00 in0.0 mm 0.00 in0.0 mm
08:23 AM 74.9°F23.8°C 72.4°F22.4°C 92% 1.0 mph ENE1.6 kmh ENE 4.0 mph6.4 kmh 29.97 in1014.9 mb 0.00 in0.0 mm 0.00 in0.0 mm 0.00 in0.0 mm
08:28 AM 75.2°F24.0°C 72.7°F22.6°C 92% Calm Calm 4.0 mph6.4 kmh 29.97 in1014.9 mb 0.00 in0.0 mm 0.00 in0.0 mm 0.00 in0.0 mm
08:33 AM 75.5°F24.2°C 72.7°F22.6°C 91% 1.0 mph WNW1.6 kmh WNW 1.0 mph1.6 kmh 29.97 in1014.9 mb 0.00 in0.0 mm 0.00 in0.0 mm 0.00 in0.0 mm
08:38 AM 75.8°F24.3°C 72.6°F22.6°C 90% 2.1 mph NE3.4 kmh NE 4.0 mph6.4 kmh 29.97 in1014.9 mb 0.00 in0.0 mm 0.00 in0.0 mm 0.00 in0.0 mm
08:43 AM 75.9°F24.4°C 72.7°F22.6°C 90% 1.3 mph NE2.1 kmh NE 4.0 mph6.4 kmh 29.97 in1014.9 mb 0.00 in0.0 mm 0.00 in0.0 mm 0.00 in0.0 mm
08:48 AM 75.9°F24.4°C 72.7°F22.6°C 90% 1.7 mph NE2.7 kmh NE 5.0 mph8.0 kmh 29.97 in1014.9 mb 0.00 in0.0 mm 0.00 in0.0 mm 0.00 in0.0 mm
08:53 AM 76.1°F24.5°C 72.9°F22.7°C 90% 1.0 mph ENE1.6 kmh ENE 5.0 mph8.0 kmh 29.98 in1015.2 mb 0.00 in0.0 mm 0.00 in0.0 mm 0.00 in0.0 mm
08:58 AM 76.3°F24.6°C 73.1°F22.8°C 90% 1.0 mph NE1.6 kmh NE 5.0 mph8.0 kmh 29.98 in1015.2 mb 0.00 in0.0 mm 0.00 in0.0 mm 0.00 in0.0 mm
09:03 AM 76.2°F24.6°C 72.7°F22.6°C 89% 1.0 mph NE1.6 kmh NE 5.0 mph8.0 kmh 29.98 in1015.2 mb 0.00 in0.0 mm 0.00 in0.0 mm 0.00 in0.0 mm
09:08 AM 76.5°F24.7°C 73.3°F22.9°C 90% 1.2 mph N1.9 kmh N 3.0 mph4.8 kmh 29.98 in1015.2 mb 0.00 in0.0 mm 0.00 in0.0 mm 0.00 in0.0 mm
09:13 AM 76.8°F24.9°C 73.0°F22.8°C 88% 1.1 mph NE1.8 kmh NE 3.0 mph4.8 kmh 29.98 in1015.2 mb 0.00 in0.0 mm 0.00 in0.0 mm 0.00 in0.0 mm
09:18 AM 77.0°F25.0°C 73.2°F22.9°C 88% 1.0 mph NW1.6 kmh NW 3.0 mph4.8 kmh 29.98 in1015.2 mb 0.00 in0.0 mm 0.00 in0.0 mm 0.00 in0.0 mm
09:23 AM 77.0°F25.0°C 73.2°F22.9°C 88% 2.4 mph NE3.9 kmh NE 3.0 mph4.8 kmh 29.98 in1015.2 mb 0.00 in0.0 mm 0.00 in0.0 mm 0.00 in0.0 mm
09:28 AM 77.1°F25.1°C 73.3°F22.9°C 88% 1.5 mph NE2.4 kmh NE 3.0 mph4.8 kmh 29.98 in1015.2 mb 0.00 in0.0 mm 0.00 in0.0 mm 0.00 in0.0 mm
09:33 AM 76.6°F24.8°C 73.1°F22.8°C 89% 1.6 mph ENE2.6 kmh ENE 4.0 mph6.4 kmh 29.98 in1015.2 mb 0.00 in0.0 mm 0.00 in0.0 mm 0.00 in0.0 mm
09:38 AM 76.8°F24.9°C 73.3°F22.9°C 89% 1.8 mph ENE2.9 kmh ENE 4.0 mph6.4 kmh 29.98 in1015.2 mb 0.00 in0.0 mm 0.00 in0.0 mm 0.00 in0.0 mm
09:43 AM 76.9°F24.9°C 73.4°F23.0°C 89% Calm Calm 4.0 mph6.4 kmh 29.98 in1015.2 mb 0.00 in0.0 mm 0.00 in0.0 mm 0.00 in0.0 mm
09:48 AM 77.3°F25.2°C 73.8°F23.2°C 89% 2.3 mph NE3.7 kmh NE 4.0 mph6.4 kmh 29.98 in1015.2 mb 0.00 in0.0 mm 0.00 in0.0 mm 0.00 in0.0 mm
09:53 AM 77.1°F25.1°C 73.6°F23.1°C 89% 1.3 mph NNE2.1 kmh NNE 4.0 mph6.4 kmh 29.98 in1015.2 mb 0.00 in0.0 mm 0.00 in0.0 mm 0.00 in0.0 mm
09:58 AM 77.2°F25.1°C 73.7°F23.2°C 89% Calm Calm 4.0 mph6.4 kmh 29.98 in1015.2 mb 0.00 in0.0 mm 0.00 in0.0 mm 0.00 in0.0 mm
10:03 AM 77.3°F25.2°C 73.8°F23.2°C 89% 1.0 mph ENE1.6 kmh ENE 4.0 mph6.4 kmh 29.98 in1015.2 mb 0.00 in0.0 mm 0.00 in0.0 mm 0.00 in0.0 mm
10:08 AM 77.2°F25.1°C 73.4°F23.0°C 88% 3.7 mph NE6.0 kmh NE 6.0 mph9.7 kmh 29.98 in1015.2 mb 0.00 in0.0 mm 0.00 in0.0 mm 0.00 in0.0 mm
10:13 AM 77.3°F25.2°C 73.8°F23.2°C 89% 3.0 mph NE4.8 kmh NE 6.0 mph9.7 kmh 29.98 in1015.2 mb 0.00 in0.0 mm 0.00 in0.0 mm 0.00 in0.0 mm
10:18 AM 77.1°F25.1°C 73.3°F22.9°C 88% 1.9 mph NE3.1 kmh NE 6.0 mph9.7 kmh 29.98 in1015.2 mb 0.00 in0.0 mm 0.00 in0.0 mm 0.00 in0.0 mm
10:22 AM 77.3°F25.2°C 73.8°F23.2°C 89% 1.9 mph ENE3.1 kmh ENE 6.0 mph9.7 kmh 29.98 in1015.2 mb 0.00 in0.0 mm 0.00 in0.0 mm 0.00 in0.0 mm
10:27 AM 77.5°F25.3°C 73.7°F23.2°C 88% 1.7 mph E2.7 kmh E 5.0 mph8.0 kmh 29.98 in1015.2 mb 0.00 in0.0 mm 0.00 in0.0 mm 0.00 in0.0 mm
10:32 AM 77.9°F25.5°C 73.7°F23.2°C 87% 1.8 mph NE2.9 kmh NE 5.0 mph8.0 kmh 29.98 in1015.2 mb 0.00 in0.0 mm 0.00 in0.0 mm 0.00 in0.0 mm
10:37 AM 78.1°F25.6°C 74.3°F23.5°C 88% 2.3 mph NE3.7 kmh NE 4.0 mph6.4 kmh 29.98 in1015.2 mb 0.00 in0.0 mm 0.00 in0.0 mm 0.00 in0.0 mm
10:42 AM 78.1°F25.6°C 73.6°F23.1°C 86% 2.0 mph NE3.2 kmh NE 5.0 mph8.0 kmh 29.98 in1015.2 mb 0.00 in0.0 mm 0.00 in0.0 mm 0.00 in0.0 mm
10:47 AM 78.4°F25.8°C 74.2°F23.4°C 87% 1.0 mph NE1.6 kmh NE 5.0 mph8.0 kmh 29.98 in1015.2 mb 0.00 in0.0 mm 0.00 in0.0 mm 0.00 in0.0 mm
10:52 AM 78.9°F26.1°C 74.4°F23.6°C 86% Calm Calm 5.0 mph8.0 kmh 29.97 in1014.9 mb 0.00 in0.0 mm 0.00 in0.0 mm 0.00 in0.0 mm
10:57 AM 79.2°F26.2°C 74.3°F23.5°C 85% 1.0 mph SE1.6 kmh SE 5.0 mph8.0 kmh 29.97 in1014.9 mb 0.00 in0.0 mm 0.00 in0.0 mm 0.00 in0.0 mm
11:02 AM 79.6°F26.4°C 74.7°F23.7°C 85% 1.8 mph SSE2.9 kmh SSE 3.0 mph4.8 kmh 29.97 in1014.9 mb 0.00 in0.0 mm 0.00 in0.0 mm 0.00 in0.0 mm
11:07 AM 80.1°F26.7°C 74.9°F23.8°C 84% 1.2 mph E1.9 kmh E 3.0 mph4.8 kmh 29.97 in1014.9 mb 0.00 in0.0 mm 0.00 in0.0 mm 0.00 in0.0 mm
11:12 AM 80.7°F27.1°C 75.1°F23.9°C 83% 1.3 mph SSW2.1 kmh SSW 3.0 mph4.8 kmh 29.97 in1014.9 mb 0.00 in0.0 mm 0.00 in0.0 mm 0.00 in0.0 mm
11:17 AM 81.8°F27.7°C 75.9°F24.4°C 82% Calm Calm 3.0 mph4.8 kmh 29.97 in1014.9 mb 0.00 in0.0 mm 0.00 in0.0 mm 0.00 in0.0 mm
11:22 AM 83.1°F28.4°C 76.4°F24.7°C 80% 1.0 mph SE1.6 kmh SE 2.0 mph3.2 kmh 29.96 in1014.6 mb 0.00 in0.0 mm 0.00 in0.0 mm 0.00 in0.0 mm
11:27 AM 83.3°F28.5°C 75.3°F24.1°C 77% 1.4 mph E2.3 kmh E 4.0 mph6.4 kmh 29.97 in1014.9 mb 0.00 in0.0 mm 0.00 in0.0 mm 0.00 in0.0 mm
11:32 AM 83.1°F28.4°C 75.3°F24.1°C 77% 1.7 mph SE2.7 kmh SE 4.0 mph6.4 kmh 29.96 in1014.6 mb 0.00 in0.0 mm 0.00 in0.0 mm 0.00 in0.0 mm
11:37 AM 83.7°F28.7°C 75.1°F23.9°C 75% 1.4 mph ENE2.3 kmh ENE 4.0 mph6.4 kmh 29.96 in1014.6 mb 0.00 in0.0 mm 0.00 in0.0 mm 0.00 in0.0 mm
11:42 AM 83.1°F28.4°C 74.9°F23.8°C 76% 1.0 mph N1.6 kmh N 5.0 mph8.0 kmh 29.96 in1014.6 mb 0.00 in0.0 mm 0.00 in0.0 mm 0.00 in0.0 mm
11:47 AM 83.1°F28.4°C 74.5°F23.6°C 75% 1.3 mph N2.1 kmh N 5.0 mph8.0 kmh 29.96 in1014.6 mb 0.00 in0.0 mm 0.00 in0.0 mm 0.00 in0.0 mm
11:52 AM 83.9°F28.8°C 74.9°F23.8°C 74% 1.0 mph ESE1.6 kmh ESE 5.0 mph8.0 kmh 29.96 in1014.6 mb 0.00 in0.0 mm 0.00 in0.0 mm 0.00 in0.0 mm
11:57 AM 84.7°F29.3°C 74.5°F23.6°C 71% 2.1 mph NE3.4 kmh NE 6.0 mph9.7 kmh 29.96 in1014.6 mb 0.00 in0.0 mm 0.00 in0.0 mm 0.00 in0.0 mm
12:02 PM 84.7°F29.3°C 75.3°F24.1°C 73% 2.6 mph E4.2 kmh E 6.0 mph9.7 kmh 29.95 in1014.2 mb 0.00 in0.0 mm 0.00 in0.0 mm 0.00 in0.0 mm
12:07 PM 84.1°F28.9°C 73.7°F23.2°C 71% 2.0 mph ENE3.2 kmh ENE 6.0 mph9.7 kmh 29.95 in1014.2 mb 0.00 in0.0 mm 0.00 in0.0 mm 0.00 in0.0 mm
12:12 PM 83.4°F28.6°C 72.8°F22.7°C 70% 1.5 mph ENE2.4 kmh ENE 6.0 mph9.7 kmh 29.95 in1014.2 mb 0.00 in0.0 mm 0.00 in0.0 mm 0.00 in0.0 mm
12:17 PM 83.2°F28.4°C 73.2°F22.9°C 72% Calm Calm 6.0 mph9.7 kmh 29.95 in1014.2 mb 0.00 in0.0 mm 0.00 in0.0 mm 0.00 in0.0 mm
12:22 PM 83.1°F28.4°C 73.8°F23.2°C 73% 1.0 mph ENE1.6 kmh ENE 6.0 mph9.7 kmh 29.95 in1014.2 mb 0.00 in0.0 mm 0.00 in0.0 mm 0.00 in0.0 mm
12:27 PM 82.7°F28.2°C 73.4°F23.0°C 73% 1.1 mph NE1.8 kmh NE 5.0 mph8.0 kmh 29.95 in1014.2 mb 0.00 in0.0 mm 0.00 in0.0 mm 0.00 in0.0 mm
12:32 PM 82.5°F28.1°C 73.8°F23.2°C 75% Calm Calm 2.0 mph3.2 kmh 29.95 in1014.2 mb 0.00 in0.0 mm 0.00 in0.0 mm 0.00 in0.0 mm
12:37 PM 82.6°F28.1°C 74.1°F23.4°C 75% 1.3 mph SW2.1 kmh SW 3.0 mph4.8 kmh 29.95 in1014.2 mb 0.00 in0.0 mm 0.00 in0.0 mm 0.00 in0.0 mm
12:42 PM 81.4°F27.4°C 73.7°F23.2°C 77% 1.7 mph SSE2.7 kmh SSE 5.0 mph8.0 kmh 29.95 in1014.2 mb 0.00 in0.0 mm 0.00 in0.0 mm 0.00 in0.0 mm
12:47 PM 80.7°F27.1°C 73.3°F22.9°C 78% 1.3 mph SW2.1 kmh SW 5.0 mph8.0 kmh 29.95 in1014.2 mb 0.00 in0.0 mm 0.00 in0.0 mm 0.00 in0.0 mm
12:52 PM 80.3°F26.8°C 73.0°F22.8°C 78% 1.0 mph ESE1.6 kmh ESE 5.0 mph8.0 kmh 29.94 in1013.9 mb 0.00 in0.0 mm 0.00 in0.0 mm 0.00 in0.0 mm
12:57 PM 80.6°F27.0°C 72.1°F22.3°C 75% 1.5 mph SSW2.4 kmh SSW 5.0 mph8.0 kmh 29.94 in1013.9 mb 0.00 in0.0 mm 0.00 in0.0 mm 0.00 in0.0 mm
01:02 PM 81.6°F27.6°C 72.7°F22.6°C 74% Calm Calm 3.0 mph4.8 kmh 29.94 in1013.9 mb 0.00 in0.0 mm 0.00 in0.0 mm 0.00 in0.0 mm
01:07 PM 82.3°F27.9°C 71.8°F22.1°C 70% Calm Calm 3.0 mph4.8 kmh 29.93 in1013.5 mb 0.00 in0.0 mm 0.00 in0.0 mm 0.00 in0.0 mm
01:12 PM 82.9°F28.3°C 72.8°F22.7°C 71% Calm Calm 2.0 mph3.2 kmh 29.93 in1013.5 mb 0.00 in0.0 mm 0.00 in0.0 mm 0.00 in0.0 mm
01:17 PM 84.2°F29.0°C 74.0°F23.3°C 71% Calm Calm -- 29.93 in1013.5 mb 0.00 in0.0 mm 0.00 in0.0 mm 0.00 in0.0 mm
01:22 PM 85.3°F29.6°C 74.8°F23.8°C 71% 1.4 mph S2.3 kmh S 3.0 mph4.8 kmh 29.93 in1013.5 mb 0.00 in0.0 mm 0.00 in0.0 mm 0.00 in0.0 mm
01:27 PM 85.7°F29.8°C 74.2°F23.4°C 68% 1.5 mph SW2.4 kmh SW 3.0 mph4.8 kmh 29.93 in1013.5 mb 0.00 in0.0 mm 0.00 in0.0 mm 0.00 in0.0 mm
01:32 PM 86.0°F30.0°C 75.7°F24.3°C 71% 2.0 mph E3.2 kmh E 4.0 mph6.4 kmh 29.93 in1013.5 mb 0.00 in0.0 mm 0.00 in0.0 mm 0.00 in0.0 mm
01:37 PM 85.6°F29.8°C 74.9°F23.8°C 70% 2.8 mph S4.5 kmh S 5.0 mph8.0 kmh 29.93 in1013.5 mb 0.00 in0.0 mm 0.00 in0.0 mm 0.00 in0.0 mm
01:42 PM 85.5°F29.7°C 75.7°F24.3°C 72% 1.6 mph SW2.6 kmh SW 5.0 mph8.0 kmh 29.93 in1013.5 mb 0.00 in0.0 mm 0.00 in0.0 mm 0.00 in0.0 mm
01:47 PM 85.1°F29.5°C 75.7°F24.3°C 73% 1.6 mph SW2.6 kmh SW 5.0 mph8.0 kmh 29.93 in1013.5 mb 0.00 in0.0 mm 0.00 in0.0 mm 0.00 in0.0 mm
01:52 PM 85.1°F29.5°C 74.6°F23.7°C 71% 2.1 mph SE3.4 kmh SE 5.0 mph8.0 kmh 29.93 in1013.5 mb 0.00 in0.0 mm 0.00 in0.0 mm 0.00 in0.0 mm
01:57 PM 85.3°F29.6°C 74.7°F23.7°C 70% 1.3 mph E2.1 kmh E 4.0 mph6.4 kmh 29.92 in1013.2 mb 0.00 in0.0 mm 0.00 in0.0 mm 0.00 in0.0 mm
02:02 PM 85.5°F29.7°C 76.1°F24.5°C 73% 1.6 mph SE2.6 kmh SE 4.0 mph6.4 kmh 29.92 in1013.2 mb 0.00 in0.0 mm 0.00 in0.0 mm 0.00 in0.0 mm
02:07 PM 84.8°F29.3°C 75.6°F24.2°C 74% 1.0 mph WSW1.6 kmh WSW 5.0 mph8.0 kmh 29.92 in1013.2 mb 0.00 in0.0 mm 0.00 in0.0 mm 0.00 in0.0 mm
02:12 PM 83.8°F28.8°C 75.2°F24.0°C 75% Calm Calm 6.0 mph9.7 kmh 29.92 in1013.2 mb 0.00 in0.0 mm 0.00 in0.0 mm 0.00 in0.0 mm
02:17 PM 82.7°F28.2°C 74.9°F23.8°C 77% 1.5 mph SSW2.4 kmh SSW 6.0 mph9.7 kmh 29.93 in1013.5 mb 0.00 in0.0 mm 0.00 in0.0 mm 0.00 in0.0 mm
02:22 PM 82.3°F27.9°C 75.6°F24.2°C 80% 2.8 mph SSW4.5 kmh SSW 6.0 mph9.7 kmh 29.93 in1013.5 mb 0.00 in0.0 mm 0.00 in0.0 mm 0.00 in0.0 mm
02:27 PM 81.9°F27.7°C 75.6°F24.2°C 81% 2.6 mph S4.2 kmh S 6.0 mph9.7 kmh 29.92 in1013.2 mb 0.00 in0.0 mm 0.00 in0.0 mm 0.00 in0.0 mm
02:32 PM 81.6°F27.6°C 74.9°F23.8°C 80% 3.1 mph S5.0 kmh S 9.0 mph14.5 kmh 29.93 in1013.5 mb 0.00 in0.0 mm 0.00 in0.0 mm 0.00 in0.0 mm
02:37 PM 81.1°F27.3°C 73.4°F23.0°C 77% 2.5 mph S4.0 kmh S 9.0 mph14.5 kmh 29.92 in1013.2 mb 0.00 in0.0 mm 0.00 in0.0 mm 0.00 in0.0 mm
02:42 PM 80.7°F27.1°C 73.7°F23.2°C 79% 1.0 mph SW1.6 kmh SW 9.0 mph14.5 kmh 29.92 in1013.2 mb 0.00 in0.0 mm 0.00 in0.0 mm 0.00 in0.0 mm
02:47 PM 80.3°F26.8°C 73.3°F22.9°C 79% 2.2 mph SSW3.5 kmh SSW 9.0 mph14.5 kmh 29.92 in1013.2 mb 0.00 in0.0 mm 0.00 in0.0 mm 0.00 in0.0 mm
02:52 PM 80.1°F26.7°C 73.4°F23.0°C 80% 2.8 mph SW4.5 kmh SW 9.0 mph14.5 kmh 29.92 in1013.2 mb 0.00 in0.0 mm 0.00 in0.0 mm 0.00 in0.0 mm
02:57 PM 79.4°F26.3°C 73.9°F23.3°C 83% 2.1 mph S3.4 kmh S 7.0 mph11.3 kmh 29.92 in1013.2 mb 0.02 in0.5 mm 0.24 in6.1 mm 0.02 in0.5 mm
03:02 PM 78.7°F25.9°C 73.9°F23.3°C 85% 1.8 mph SSE2.9 kmh SSE 7.0 mph11.3 kmh 29.92 in1013.2 mb 0.02 in0.5 mm 0.00 in0.0 mm 0.02 in0.5 mm
03:07 PM 78.3°F25.7°C 74.1°F23.4°C 87% 1.0 mph SE1.6 kmh SE 7.0 mph11.3 kmh 29.92 in1013.2 mb 0.02 in0.5 mm 0.00 in0.0 mm 0.02 in0.5 mm
03:12 PM 78.2°F25.7°C 74.0°F23.3°C 87% 1.6 mph SW2.6 kmh SW 6.0 mph9.7 kmh 29.92 in1013.2 mb 0.02 in0.5 mm 0.00 in0.0 mm 0.02 in0.5 mm
03:17 PM 78.2°F25.7°C 74.4°F23.6°C 88% 1.7 mph SW2.7 kmh SW 4.0 mph6.4 kmh 29.92 in1013.2 mb 0.02 in0.5 mm 0.00 in0.0 mm 0.02 in0.5 mm
03:22 PM 78.3°F25.7°C 74.8°F23.8°C 89% 2.0 mph S3.2 kmh S 5.0 mph8.0 kmh 29.92 in1013.2 mb 0.02 in0.5 mm 0.00 in0.0 mm 0.02 in0.5 mm
03:27 PM 78.0°F25.6°C 74.2°F23.4°C 88% 1.3 mph SW2.1 kmh SW 5.0 mph8.0 kmh 29.92 in1013.2 mb 0.02 in0.5 mm 0.00 in0.0 mm 0.02 in0.5 mm
03:32 PM 77.7°F25.4°C 74.2°F23.4°C 89% 2.0 mph SSW3.2 kmh SSW 5.0 mph8.0 kmh 29.93 in1013.5 mb 0.02 in0.5 mm 0.00 in0.0 mm 0.02 in0.5 mm
03:37 PM 77.2°F25.1°C 73.0°F22.8°C 87% 1.0 mph S1.6 kmh S 4.0 mph6.4 kmh 29.94 in1013.9 mb 0.02 in0.5 mm 0.00 in0.0 mm 0.02 in0.5 mm
03:42 PM 76.9°F24.9°C 73.1°F22.8°C 88% 1.7 mph NE2.7 kmh NE 3.0 mph4.8 kmh 29.94 in1013.9 mb 0.02 in0.5 mm 0.00 in0.0 mm 0.02 in0.5 mm
03:47 PM 76.5°F24.7°C 73.0°F22.8°C 89% 3.9 mph N6.3 kmh N 8.0 mph12.9 kmh 29.94 in1013.9 mb 0.08 in2.0 mm 0.72 in18.3 mm 0.08 in2.0 mm
03:52 PM 75.8°F24.3°C 72.6°F22.6°C 90% 2.7 mph ENE4.3 kmh ENE 8.0 mph12.9 kmh 29.93 in1013.5 mb 0.09 in2.3 mm 0.12 in3.0 mm 0.09 in2.3 mm
03:57 PM 75.5°F24.2°C 73.0°F22.8°C 92% 4.1 mph NE6.6 kmh NE 8.0 mph12.9 kmh 29.93 in1013.5 mb 0.10 in2.5 mm 0.12 in3.0 mm 0.12 in3.0 mm
04:02 PM 75.1°F23.9°C 72.6°F22.6°C 92% 1.0 mph NE1.6 kmh NE 8.0 mph12.9 kmh 29.92 in1013.2 mb 0.17 in4.3 mm 0.08 in2.0 mm 0.19 in4.8 mm
04:07 PM 74.7°F23.7°C 72.5°F22.5°C 93% 2.2 mph NE3.5 kmh NE 7.0 mph11.3 kmh 29.92 in1013.2 mb 0.19 in4.8 mm 0.24 in6.1 mm 0.21 in5.3 mm
04:12 PM 74.5°F23.6°C 72.6°F22.6°C 94% 1.0 mph N1.6 kmh N 6.0 mph9.7 kmh 29.92 in1013.2 mb 0.19 in4.8 mm 0.00 in0.0 mm 0.21 in5.3 mm
04:17 PM 74.4°F23.6°C 72.5°F22.5°C 94% Calm Calm 4.0 mph6.4 kmh 29.92 in1013.2 mb 0.20 in5.1 mm 0.12 in3.0 mm 0.22 in5.6 mm
04:21 PM 74.4°F23.6°C 72.8°F22.7°C 95% Calm Calm 4.0 mph6.4 kmh 29.92 in1013.2 mb 0.20 in5.1 mm 0.00 in0.0 mm 0.22 in5.6 mm
04:26 PM 74.4°F23.6°C 72.9°F22.7°C 95% Calm Calm 1.0 mph1.6 kmh 29.92 in1013.2 mb 0.20 in5.1 mm 0.00 in0.0 mm 0.22 in5.6 mm
04:31 PM 74.4°F23.6°C 72.8°F22.7°C 95% 1.0 mph WSW1.6 kmh WSW 2.0 mph3.2 kmh 29.92 in1013.2 mb 0.20 in5.1 mm 0.00 in0.0 mm 0.22 in5.6 mm
04:36 PM 74.4°F23.6°C 72.8°F22.7°C 95% 1.0 mph WSW1.6 kmh WSW 2.0 mph3.2 kmh 29.92 in1013.2 mb 0.20 in5.1 mm 0.00 in0.0 mm 0.22 in5.6 mm
04:41 PM 74.5°F23.6°C 72.9°F22.7°C 95% 1.3 mph WNW2.1 kmh WNW 2.0 mph3.2 kmh 29.93 in1013.5 mb 0.20 in5.1 mm 0.00 in0.0 mm 0.22 in5.6 mm
04:46 PM 74.4°F23.6°C 72.8°F22.7°C 95% Calm Calm 2.0 mph3.2 kmh 29.92 in1013.2 mb 0.15 in3.8 mm 0.00 in0.0 mm 0.22 in5.6 mm
04:51 PM 74.4°F23.6°C 72.8°F22.7°C 95% 1.0 mph WSW1.6 kmh WSW 2.0 mph3.2 kmh 29.92 in1013.2 mb 0.13 in3.3 mm 0.00 in0.0 mm 0.22 in5.6 mm
04:56 PM 74.3°F23.5°C 72.8°F22.7°C 95% Calm Calm 2.0 mph3.2 kmh 29.93 in1013.5 mb 0.12 in3.0 mm 0.00 in0.0 mm 0.22 in5.6 mm
05:01 PM 74.4°F23.6°C 72.8°F22.7°C 95% Calm Calm 1.0 mph1.6 kmh 29.93 in1013.5 mb 0.05 in1.3 mm 0.00 in0.0 mm 0.22 in5.6 mm
05:06 PM 74.4°F23.6°C 72.8°F22.7°C 95% 1.1 mph E1.8 kmh E 2.0 mph3.2 kmh 29.93 in1013.5 mb 0.02 in0.5 mm 0.00 in0.0 mm 0.22 in5.6 mm
05:11 PM 74.4°F23.6°C 72.8°F22.7°C 95% 1.6 mph SE2.6 kmh SE 3.0 mph4.8 kmh 29.93 in1013.5 mb 0.01 in0.3 mm 0.00 in0.0 mm 0.22 in5.6 mm
05:16 PM 74.5°F23.6°C 73.3°F22.9°C 96% Calm Calm 3.0 mph4.8 kmh 29.93 in1013.5 mb 0.01 in0.3 mm 0.00 in0.0 mm 0.22 in5.6 mm
05:21 PM 74.7°F23.7°C 73.5°F23.1°C 96% Calm Calm 3.0 mph4.8 kmh 29.92 in1013.2 mb 0.00 in0.0 mm 0.00 in0.0 mm 0.22 in5.6 mm
05:26 PM 74.9°F23.8°C 73.7°F23.2°C 96% Calm Calm 3.0 mph4.8 kmh 29.92 in1013.2 mb 0.00 in0.0 mm 0.00 in0.0 mm 0.22 in5.6 mm
05:31 PM 75.3°F24.1°C 74.4°F23.6°C 97% 1.0 mph SW1.6 kmh SW 2.0 mph3.2 kmh 29.93 in1013.5 mb 0.00 in0.0 mm 0.00 in0.0 mm 0.22 in5.6 mm
05:36 PM 75.6°F24.2°C 74.4°F23.6°C 96% 1.0 mph SW1.6 kmh SW 2.0 mph3.2 kmh 29.93 in1013.5 mb 0.00 in0.0 mm 0.00 in0.0 mm 0.22 in5.6 mm
05:41 PM 75.8°F24.3°C 74.6°F23.7°C 96% Calm Calm 1.0 mph1.6 kmh 29.93 in1013.5 mb 0.00 in0.0 mm 0.00 in0.0 mm 0.22 in5.6 mm
05:46 PM 76.1°F24.5°C 74.5°F23.6°C 95% Calm Calm 2.0 mph3.2 kmh 29.93 in1013.5 mb 0.00 in0.0 mm 0.00 in0.0 mm 0.22 in5.6 mm
05:51 PM 76.5°F24.7°C 74.9°F23.8°C 95% 1.0 mph SW1.6 kmh SW 2.0 mph3.2 kmh 29.92 in1013.2 mb 0.00 in0.0 mm 0.00 in0.0 mm 0.22 in5.6 mm
05:56 PM 77.0°F25.0°C 75.1°F23.9°C 94% Calm Calm 2.0 mph3.2 kmh 29.92 in1013.2 mb 0.00 in0.0 mm 0.00 in0.0 mm 0.22 in5.6 mm
06:01 PM 77.2°F25.1°C 74.7°F23.7°C 92% 1.1 mph SW1.8 kmh SW 2.0 mph3.2 kmh 29.92 in1013.2 mb 0.00 in0.0 mm 0.00 in0.0 mm 0.22 in5.6 mm
06:06 PM 77.5°F25.3°C 74.7°F23.7°C 91% Calm Calm 2.0 mph3.2 kmh 29.91 in1012.9 mb 0.00 in0.0 mm 0.00 in0.0 mm 0.22 in5.6 mm
06:11 PM 77.9°F25.5°C 74.7°F23.7°C 90% Calm Calm 2.0 mph3.2 kmh 29.91 in1012.9 mb 0.00 in0.0 mm 0.00 in0.0 mm 0.22 in5.6 mm
06:16 PM 78.3°F25.7°C 74.8°F23.8°C 89% Calm Calm 2.0 mph3.2 kmh 29.91 in1012.9 mb 0.00 in0.0 mm 0.00 in0.0 mm 0.22 in5.6 mm
06:21 PM 78.7°F25.9°C 74.9°F23.8°C 88% Calm Calm 2.0 mph3.2 kmh 29.91 in1012.9 mb 0.00 in0.0 mm 0.00 in0.0 mm 0.22 in5.6 mm
06:26 PM 78.9°F26.1°C 74.0°F23.3°C 85% 1.0 mph SE1.6 kmh SE 2.0 mph3.2 kmh 29.91 in1012.9 mb 0.00 in0.0 mm 0.00 in0.0 mm 0.22 in5.6 mm
06:31 PM 79.5°F26.4°C 74.6°F23.7°C 85% Calm Calm 2.0 mph3.2 kmh 29.91 in1012.9 mb 0.00 in0.0 mm 0.00 in0.0 mm 0.22 in5.6 mm
06:36 PM 80.0°F26.7°C 74.4°F23.6°C 83% 1.0 mph SW1.6 kmh SW 1.0 mph1.6 kmh 29.92 in1013.2 mb 0.00 in0.0 mm 0.00 in0.0 mm 0.22 in5.6 mm
06:41 PM 80.0°F26.7°C 74.8°F23.8°C 84% Calm Calm 1.0 mph1.6 kmh 29.92 in1013.2 mb 0.00 in0.0 mm 0.00 in0.0 mm 0.22 in5.6 mm
06:46 PM 79.9°F26.6°C 74.7°F23.7°C 84% 1.0 mph SW1.6 kmh SW 1.0 mph1.6 kmh 29.92 in1013.2 mb 0.00 in0.0 mm 0.00 in0.0 mm 0.22 in5.6 mm
06:51 PM 79.9°F26.6°C 75.0°F23.9°C 85% Calm Calm 2.0 mph3.2 kmh 29.92 in1013.2 mb 0.00 in0.0 mm 0.00 in0.0 mm 0.22 in5.6 mm
06:56 PM 80.1°F26.7°C 75.2°F24.0°C 85% Calm Calm 2.0 mph3.2 kmh 29.92 in1013.2 mb 0.00 in0.0 mm 0.00 in0.0 mm 0.22 in5.6 mm
07:01 PM 80.2°F26.8°C 75.3°F24.1°C 85% Calm Calm 2.0 mph3.2 kmh 29.92 in1013.2 mb 0.00 in0.0 mm 0.00 in0.0 mm 0.22 in5.6 mm
07:06 PM 79.9°F26.6°C 75.4°F24.1°C 86% Calm Calm 2.0 mph3.2 kmh 29.91 in1012.9 mb 0.00 in0.0 mm 0.00 in0.0 mm 0.22 in5.6 mm
07:11 PM 79.3°F26.3°C 75.1°F23.9°C 87% Calm Calm 2.0 mph3.2 kmh 29.92 in1013.2 mb 0.00 in0.0 mm 0.00 in0.0 mm 0.22 in5.6 mm
07:16 PM 78.7°F25.9°C 74.5°F23.6°C 87% Calm Calm 2.0 mph3.2 kmh 29.91 in1012.9 mb 0.00 in0.0 mm 0.00 in0.0 mm 0.22 in5.6 mm
07:21 PM 78.1°F25.6°C 74.3°F23.5°C 88% 1.0 mph SE1.6 kmh SE 2.0 mph3.2 kmh 29.92 in1013.2 mb 0.00 in0.0 mm 0.00 in0.0 mm 0.22 in5.6 mm
07:26 PM 77.4°F25.2°C 73.9°F23.3°C 89% 1.2 mph ESE1.9 kmh ESE 2.0 mph3.2 kmh 29.92 in1013.2 mb 0.00 in0.0 mm 0.00 in0.0 mm 0.22 in5.6 mm
07:31 PM 76.8°F24.9°C 73.6°F23.1°C 90% 1.1 mph SE1.8 kmh SE 2.0 mph3.2 kmh 29.93 in1013.5 mb 0.00 in0.0 mm 0.00 in0.0 mm 0.22 in5.6 mm
07:36 PM 76.6°F24.8°C 73.8°F23.2°C 91% Calm Calm 2.0 mph3.2 kmh 29.93 in1013.5 mb 0.00 in0.0 mm 0.00 in0.0 mm 0.22 in5.6 mm
07:41 PM 76.3°F24.6°C 73.5°F23.1°C 91% 1.6 mph ESE2.6 kmh ESE 2.0 mph3.2 kmh 29.93 in1013.5 mb 0.00 in0.0 mm 0.00 in0.0 mm 0.22 in5.6 mm
07:46 PM 76.2°F24.6°C 73.7°F23.2°C 92% 1.0 mph SE1.6 kmh SE 2.0 mph3.2 kmh 29.93 in1013.5 mb 0.00 in0.0 mm 0.00 in0.0 mm 0.22 in5.6 mm
07:51 PM 75.9°F24.4°C 73.4°F23.0°C 92% 1.0 mph SE1.6 kmh SE 2.0 mph3.2 kmh 29.93 in1013.5 mb 0.00 in0.0 mm 0.00 in0.0 mm 0.22 in5.6 mm
07:56 PM 75.7°F24.3°C 73.2°F22.9°C 92% 1.0 mph SE1.6 kmh SE 2.0 mph3.2 kmh 29.93 in1013.5 mb 0.00 in0.0 mm 0.00 in0.0 mm 0.22 in5.6 mm
08:02 PM 75.6°F24.2°C 73.4°F23.0°C 93% Calm Calm 1.0 mph1.6 kmh 29.93 in1013.5 mb 0.00 in0.0 mm 0.00 in0.0 mm 0.22 in5.6 mm
08:06 PM 75.4°F24.1°C 73.2°F22.9°C 93% Calm Calm 1.0 mph1.6 kmh 29.93 in1013.5 mb 0.00 in0.0 mm 0.00 in0.0 mm 0.22 in5.6 mm
08:12 PM 75.2°F24.0°C 73.0°F22.8°C 93% Calm Calm 1.0 mph1.6 kmh 29.93 in1013.5 mb 0.00 in0.0 mm 0.00 in0.0 mm 0.22 in5.6 mm
08:17 PM 75.0°F23.9°C 73.2°F22.9°C 94% Calm Calm -- 29.93 in1013.5 mb 0.00 in0.0 mm 0.00 in0.0 mm 0.22 in5.6 mm
08:22 PM 74.9°F23.8°C 73.0°F22.8°C 94% Calm Calm -- 29.93 in1013.5 mb 0.00 in0.0 mm 0.00 in0.0 mm 0.22 in5.6 mm
08:27 PM 74.6°F23.7°C 72.7°F22.6°C 94% Calm Calm -- 29.93 in1013.5 mb 0.00 in0.0 mm 0.00 in0.0 mm 0.22 in5.6 mm
08:32 PM 74.5°F23.6°C 72.6°F22.6°C 94% Calm Calm -- 29.93 in1013.5 mb 0.00 in0.0 mm 0.00 in0.0 mm 0.22 in5.6 mm
08:37 PM 74.4°F23.6°C 72.5°F22.5°C 94% Calm Calm -- 29.93 in1013.5 mb 0.00 in0.0 mm 0.00 in0.0 mm 0.22 in5.6 mm
08:42 PM 74.2°F23.4°C 72.6°F22.6°C 95% Calm Calm -- 29.93 in1013.5 mb 0.00 in0.0 mm 0.00 in0.0 mm 0.22 in5.6 mm
08:47 PM 74.2°F23.4°C 72.6°F22.6°C 95% Calm Calm 1.0 mph1.6 kmh 29.94 in1013.9 mb 0.00 in0.0 mm 0.00 in0.0 mm 0.22 in5.6 mm
08:52 PM 74.1°F23.4°C 72.6°F22.6°C 95% Calm Calm 1.0 mph1.6 kmh 29.94 in1013.9 mb 0.00 in0.0 mm 0.00 in0.0 mm 0.22 in5.6 mm
08:57 PM 74.1°F23.4°C 72.5°F22.5°C 95% Calm Calm 1.0 mph1.6 kmh 29.95 in1014.2 mb 0.00 in0.0 mm 0.00 in0.0 mm 0.22 in5.6 mm
09:02 PM 74.0°F23.3°C 72.4°F22.4°C 95% Calm Calm 1.0 mph1.6 kmh 29.95 in1014.2 mb 0.00 in0.0 mm 0.00 in0.0 mm 0.22 in5.6 mm
09:08 PM 74.1°F23.4°C 72.5°F22.5°C 95% Calm Calm 1.0 mph1.6 kmh 29.95 in1014.2 mb 0.00 in0.0 mm 0.00 in0.0 mm 0.22 in5.6 mm
09:13 PM 74.1°F23.4°C 72.5°F22.5°C 95% Calm Calm 1.0 mph1.6 kmh 29.95 in1014.2 mb 0.00 in0.0 mm 0.00 in0.0 mm 0.22 in5.6 mm
09:18 PM 74.1°F23.4°C 72.5°F22.5°C 95% Calm Calm 1.0 mph1.6 kmh 29.95 in1014.2 mb 0.00 in0.0 mm 0.00 in0.0 mm 0.22 in5.6 mm
09:23 PM 74.0°F23.3°C 72.4°F22.4°C 95% Calm Calm 1.0 mph1.6 kmh 29.95 in1014.2 mb 0.00 in0.0 mm 0.00 in0.0 mm 0.22 in5.6 mm
09:29 PM 73.9°F23.3°C 72.4°F22.4°C 95% Calm Calm -- 29.95 in1014.2 mb 0.00 in0.0 mm 0.00 in0.0 mm 0.22 in5.6 mm
09:34 PM 73.8°F23.2°C 72.2°F22.3°C 95% Calm Calm -- 29.95 in1014.2 mb 0.00 in0.0 mm 0.00 in0.0 mm 0.22 in5.6 mm
09:39 PM 73.8°F23.2°C 72.2°F22.3°C 95% Calm Calm -- 29.95 in1014.2 mb 0.00 in0.0 mm 0.00 in0.0 mm 0.22 in5.6 mm
09:44 PM 73.7°F23.2°C 72.5°F22.5°C 96% Calm Calm -- 29.95 in1014.2 mb 0.00 in0.0 mm 0.00 in0.0 mm 0.22 in5.6 mm
09:51 PM 73.7°F23.2°C 72.5°F22.5°C 96% Calm Calm -- 29.94 in1013.9 mb 0.00 in0.0 mm 0.00 in0.0 mm 0.22 in5.6 mm
09:59 PM 73.6°F23.1°C 72.4°F22.4°C 96% Calm Calm -- 29.94 in1013.9 mb 0.00 in0.0 mm 0.00 in0.0 mm 0.22 in5.6 mm
10:04 PM 73.4°F23.0°C 72.2°F22.3°C 96% 1.0 mph SSW1.6 kmh SSW 1.0 mph1.6 kmh 29.95 in1014.2 mb 0.00 in0.0 mm 0.00 in0.0 mm 0.22 in5.6 mm
10:09 PM 73.4°F23.0°C 72.2°F22.3°C 96% Calm Calm 1.0 mph1.6 kmh 29.95 in1014.2 mb 0.00 in0.0 mm 0.00 in0.0 mm 0.22 in5.6 mm
10:14 PM 73.3°F22.9°C 72.1°F22.3°C 96% Calm Calm 1.0 mph1.6 kmh 29.95 in1014.2 mb 0.00 in0.0 mm 0.00 in0.0 mm 0.22 in5.6 mm
10:19 PM 73.2°F22.9°C 72.0°F22.2°C 96% Calm Calm 1.0 mph1.6 kmh 29.95 in1014.2 mb 0.00 in0.0 mm 0.00 in0.0 mm 0.22 in5.6 mm
10:23 PM 73.1°F22.8°C 71.9°F22.2°C 96% Calm Calm -- 29.95 in1014.2 mb 0.00 in0.0 mm 0.00 in0.0 mm 0.22 in5.6 mm
10:28 PM 73.1°F22.8°C 71.9°F22.2°C 96% Calm Calm -- 29.95 in1014.2 mb 0.00 in0.0 mm 0.00 in0.0 mm 0.22 in5.6 mm
10:33 PM 73.0°F22.8°C 71.8°F22.1°C 96% Calm Calm -- 29.95 in1014.2 mb 0.00 in0.0 mm 0.00 in0.0 mm 0.22 in5.6 mm
10:38 PM 72.8°F22.7°C 71.6°F22.0°C 96% Calm Calm -- 29.95 in1014.2 mb 0.00 in0.0 mm 0.00 in0.0 mm 0.22 in5.6 mm
10:43 PM 72.7°F22.6°C 71.5°F21.9°C 96% Calm Calm -- 29.95 in1014.2 mb 0.00 in0.0 mm 0.00 in0.0 mm 0.22 in5.6 mm
10:48 PM 72.6°F22.6°C 71.4°F21.9°C 96% Calm Calm -- 29.94 in1013.9 mb 0.00 in0.0 mm 0.00 in0.0 mm 0.22 in5.6 mm
10:53 PM 72.5°F22.5°C 71.3°F21.8°C 96% Calm Calm -- 29.95 in1014.2 mb 0.00 in0.0 mm 0.00 in0.0 mm 0.22 in5.6 mm
10:58 PM 72.4°F22.4°C 71.2°F21.8°C 96% Calm Calm -- 29.94 in1013.9 mb 0.00 in0.0 mm 0.00 in0.0 mm 0.22 in5.6 mm
11:03 PM 72.3°F22.4°C 71.1°F21.7°C 96% Calm Calm 1.0 mph1.6 kmh 29.94 in1013.9 mb 0.00 in0.0 mm 0.00 in0.0 mm 0.22 in5.6 mm
11:08 PM 72.2°F22.3°C 71.3°F21.8°C 97% 1.0 mph SW1.6 kmh SW 1.0 mph1.6 kmh 29.94 in1013.9 mb 0.00 in0.0 mm 0.00 in0.0 mm 0.20 in5.1 mm
11:13 PM 72.1°F22.3°C 71.2°F21.8°C 97% Calm Calm 1.0 mph1.6 kmh 29.94 in1013.9 mb 0.00 in0.0 mm 0.00 in0.0 mm 0.20 in5.1 mm
11:18 PM 72.0°F22.2°C 71.1°F21.7°C 97% Calm Calm 1.0 mph1.6 kmh 29.94 in1013.9 mb 0.00 in0.0 mm 0.00 in0.0 mm 0.20 in5.1 mm
11:23 PM 71.8°F22.1°C 70.9°F21.6°C 97% 1.0 mph SW1.6 kmh SW 1.0 mph1.6 kmh 29.94 in1013.9 mb 0.00 in0.0 mm 0.00 in0.0 mm 0.20 in5.1 mm
11:28 PM 71.7°F22.1°C 70.8°F21.6°C 97% Calm Calm 1.0 mph1.6 kmh 29.94 in1013.9 mb 0.00 in0.0 mm 0.00 in0.0 mm 0.20 in5.1 mm
11:33 PM 71.6°F22.0°C 70.7°F21.5°C 97% 1.0 mph SW1.6 kmh SW 1.0 mph1.6 kmh 29.94 in1013.9 mb 0.00 in0.0 mm 0.00 in0.0 mm 0.20 in5.1 mm
11:38 PM 71.5°F21.9°C 70.6°F21.4°C 97% Calm Calm 1.0 mph1.6 kmh 29.94 in1013.9 mb 0.00 in0.0 mm 0.00 in0.0 mm 0.20 in5.1 mm
11:43 PM 71.4°F21.9°C 70.5°F21.4°C 97% Calm Calm 1.0 mph1.6 kmh 29.94 in1013.9 mb 0.00 in0.0 mm 0.00 in0.0 mm 0.20 in5.1 mm
11:48 PM 71.3°F21.8°C 70.4°F21.3°C 97% Calm Calm 1.0 mph1.6 kmh 29.94 in1013.9 mb 0.00 in0.0 mm 0.00 in0.0 mm 0.20 in5.1 mm
11:53 PM 71.3°F21.8°C 70.4°F21.3°C 97% Calm Calm 1.0 mph1.6 kmh 29.94 in1013.9 mb 0.00 in0.0 mm 0.00 in0.0 mm 0.20 in5.1 mm
11:58 PM 71.2°F21.8°C 70.3°F21.3°C 97% Calm Calm 1.0 mph1.6 kmh 29.94 in1013.9 mb 0.00 in0.0 mm 0.00 in0.0 mm 0.20 in5.1 mm